Time;durP1;ratioP1;P1;durP2;ratioP2;P2;SDS_P1;SDS_P2;PMS_P1;PMS_P2;Temp;Humidity;BMP_temperature;BMP_pressure;BME280_temperature;BME280_humidity;BME280_pressure;Samples;Min_cycle;Max_cycle;Signal;HPM_P1;HPM_P2
2021/01/02 00:00:50;;;;;;;32.80;21.43;;;7.50;97.10;;;;;;5053052;28;20406;-74
2021/01/02 00:03:46;;;;;;;31.63;22.33;;;7.50;97.20;;;;;;5052580;28;20529;-74
2021/01/02 00:06:53;;;;;;;35.23;22.23;;;7.50;97.20;;;;;;5051936;28;20436;-74
2021/01/02 00:09:23;;;;;;;31.80;22.97;;;7.60;97.40;;;;;;5052732;28;20477;-74
2021/01/02 00:12:26;;;;;;;30.03;22.33;;;7.50;97.20;;;;;;5052473;28;20378;-74
2021/01/02 00:15:04;;;;;;;34.43;23.50;;;7.50;97.30;;;;;;5032417;28;20413;-75
2021/01/02 00:17:53;;;;;;;33.23;23.67;;;7.50;97.30;;;;;;5032882;28;20936;-74
2021/01/02 00:20:42;;;;;;;35.77;23.07;;;7.60;97.20;;;;;;5032732;28;20408;-74
2021/01/02 00:23:20;;;;;;;35.27;23.67;;;7.60;97.20;;;;;;5046735;28;20746;-74
2021/01/02 00:25:56;;;;;;;32.20;22.63;;;7.60;97.20;;;;;;5051300;28;20403;-74
2021/01/02 00:28:23;;;;;;;35.50;23.43;;;7.60;97.20;;;;;;5052628;28;20495;-74
2021/01/02 00:31:15;;;;;;;31.20;23.57;;;7.60;97.20;;;;;;5051089;28;20467;-74
2021/01/02 00:33:53;;;;;;;36.07;23.57;;;7.60;97.20;;;;;;5052433;28;20511;-74
2021/01/02 00:36:32;;;;;;;35.37;24.17;;;7.60;97.30;;;;;;5052193;28;20417;-74
2021/01/02 00:38:58;;;;;;;36.40;24.83;;;7.50;97.30;;;;;;5051469;28;20752;-74
2021/01/02 00:41:27;;;;;;;40.20;24.40;;;7.50;97.30;;;;;;5052413;28;20428;-72
2021/01/02 00:43:54;;;;;;;37.73;24.60;;;7.50;97.10;;;;;;5051884;28;20396;-73
2021/01/02 00:46:20;;;;;;;39.80;23.60;;;7.60;97.20;;;;;;5050720;28;20483;-72
2021/01/02 00:48:47;;;;;;;39.23;25.63;;;7.60;97.20;;;;;;5052071;28;20465;-72
2021/01/02 00:51:15;;;;;;;35.70;25.80;;;7.70;97.20;;;;;;5050864;28;20901;-72
2021/01/02 00:53:58;;;;;;;37.07;24.90;;;7.70;97.10;;;;;;5050298;28;20415;-72
2021/01/02 00:56:32;;;;;;;39.80;25.30;;;7.70;97.00;;;;;;5051812;28;20414;-71
2021/01/02 00:59:15;;;;;;;38.20;24.47;;;7.60;97.00;;;;;;5051454;28;20771;-72
2021/01/02 01:02:37;;;;;;;35.47;24.30;;;7.60;97.00;;;;;;5052094;28;20429;-72
2021/01/02 01:05:08;;;;;;;35.60;23.50;;;7.70;97.00;;;;;;5012111;28;20848;-72
2021/01/02 01:07:35;;;;;;;35.63;23.87;;;7.60;97.10;;;;;;5029646;28;20422;-72
2021/01/02 01:10:06;;;;;;;36.50;24.93;;;7.50;97.70;;;;;;5030298;28;20484;-72
2021/01/02 01:12:41;;;;;;;42.80;27.03;;;7.50;97.40;;;;;;5048540;28;20439;-72
2021/01/02 01:15:10;;;;;;;34.80;23.93;;;7.50;97.50;;;;;;5031325;28;20381;-73
2021/01/02 01:17:49;;;;;;;40.83;24.50;;;7.40;97.60;;;;;;5063675;28;20943;-73
2021/01/02 01:20:17;;;;;;;39.53;26.40;;;7.40;97.80;;;;;;5069261;28;20562;-73
2021/01/02 01:23:11;;;;;;;36.20;24.33;;;7.40;97.80;;;;;;5056370;28;20396;-72
2021/01/02 01:25:52;;;;;;;38.17;24.63;;;7.50;98.00;;;;;;5033826;28;20465;-72
2021/01/02 01:28:23;;;;;;;40.87;24.73;;;7.50;97.90;;;;;;5055068;28;20489;-73
2021/01/02 01:30:54;;;;;;;41.77;25.73;;;7.50;97.80;;;;;;5054906;28;20767;-75
2021/01/02 01:33:28;;;;;;;38.80;24.40;;;7.50;97.80;;;;;;5055785;28;20380;-73
2021/01/02 01:36:01;;;;;;;35.93;24.87;;;7.60;97.90;;;;;;5057391;28;20373;-75
2021/01/02 01:38:28;;;;;;;38.80;25.17;;;7.60;97.80;;;;;;5063709;28;20430;-73
2021/01/02 01:41:08;;;;;;;38.77;24.50;;;7.60;97.80;;;;;;5062852;28;20422;-74
2021/01/02 01:43:49;;;;;;;37.50;25.60;;;7.60;97.70;;;;;;5055433;28;20406;-73
2021/01/02 01:46:17;;;;;;;40.47;25.47;;;7.60;97.70;;;;;;5062280;28;20876;-73
2021/01/02 01:49:04;;;;;;;39.33;25.73;;;7.60;97.70;;;;;;5064652;28;20421;-73
2021/01/02 01:51:57;;;;;;;46.53;26.10;;;7.60;97.60;;;;;;5065272;28;20416;-73
2021/01/02 01:54:47;;;;;;;41.60;26.03;;;7.60;97.70;;;;;;5062241;28;20519;-73
2021/01/02 01:57:22;;;;;;;39.93;25.27;;;7.60;97.70;;;;;;5060335;28;20934;-73
2021/01/02 02:00:08;;;;;;;36.37;23.57;;;7.60;97.80;;;;;;5063049;28;20411;-73
2021/01/02 02:02:46;;;;;;;36.80;25.00;;;7.60;97.90;;;;;;5061249;28;20415;-74
2021/01/02 02:05:13;;;;;;;34.30;24.47;;;7.60;97.80;;;;;;5059627;28;20414;-73
2021/01/02 02:07:58;;;;;;;37.00;24.50;;;7.60;97.70;;;;;;5063742;28;20416;-73
2021/01/02 02:10:31;;;;;;;36.00;24.70;;;7.60;97.80;;;;;;5063630;28;20423;-73
2021/01/02 02:12:59;;;;;;;36.50;26.03;;;7.50;97.80;;;;;;5062516;28;20413;-74
2021/01/02 02:15:28;;;;;;;35.93;24.63;;;7.50;97.90;;;;;;5061501;28;20391;-74
2021/01/02 02:18:18;;;;;;;36.37;24.63;;;7.50;98.30;;;;;;5060169;28;20416;-73
2021/01/02 02:20:47;;;;;;;39.27;23.87;;;7.60;98.10;;;;;;5096796;28;20405;-73
2021/01/02 02:23:14;;;;;;;38.40;23.73;;;7.60;98.00;;;;;;5068656;28;20801;-74
2021/01/02 02:25:59;;;;;;;37.70;24.97;;;7.60;98.00;;;;;;5075407;28;20432;-73
2021/01/02 02:28:58;;;;;;;35.47;24.93;;;7.50;97.90;;;;;;5074805;28;20534;-73
2021/01/02 02:31:23;;;;;;;34.43;23.07;;;7.50;98.00;;;;;;5074912;28;20397;-73
2021/01/02 02:34:00;;;;;;;38.17;24.77;;;7.50;98.00;;;;;;5074446;28;20429;-73
2021/01/02 02:36:28;;;;;;;34.77;24.13;;;7.50;98.00;;;;;;5074395;28;20765;-73
2021/01/02 02:38:57;;;;;;;34.13;24.70;;;7.50;98.10;;;;;;5074478;28;20488;-73
2021/01/02 02:41:26;;;;;;;35.20;23.27;;;7.50;98.20;;;;;;5074397;28;20482;-73
2021/01/02 02:43:54;;;;;;;37.20;23.87;;;7.50;98.30;;;;;;5074628;28;20411;-73
2021/01/02 02:46:22;;;;;;;34.93;24.17;;;7.50;98.40;;;;;;5073756;28;20400;-74
2021/01/02 02:48:53;;;;;;;34.90;23.80;;;7.50;98.50;;;;;;5073403;28;20883;-74
2021/01/02 02:51:19;;;;;;;34.20;22.90;;;7.50;98.50;;;;;;5073794;28;20509;-74
2021/01/02 02:53:49;;;;;;;33.30;24.07;;;7.50;98.60;;;;;;5074446;28;20392;-74
2021/01/02 02:56:15;;;;;;;33.93;23.47;;;7.40;98.60;;;;;;5073655;28;20415;-74
2021/01/02 02:58:40;;;;;;;34.33;24.40;;;7.40;98.70;;;;;;5074580;28;20441;-74
2021/01/02 03:01:06;;;;;;;35.53;23.70;;;7.40;98.70;;;;;;5073555;28;20416;-74
2021/01/02 03:03:32;;;;;;;36.23;25.20;;;7.50;98.70;;;;;;5071082;28;20440;-74
2021/01/02 03:05:59;;;;;;;37.37;24.17;;;7.50;98.60;;;;;;5053507;28;20172;-74
2021/01/02 03:08:26;;;;;;;34.33;23.67;;;7.50;98.50;;;;;;5053945;28;20270;-74
2021/01/02 03:10:53;;;;;;;38.50;25.33;;;7.50;98.60;;;;;;5054049;28;20449;-74
2021/01/02 03:13:19;;;;;;;34.63;23.13;;;7.50;98.60;;;;;;5053011;28;21039;-74
2021/01/02 03:15:45;;;;;;;33.90;24.60;;;7.60;98.60;;;;;;5053981;28;20416;-74
2021/01/02 03:18:10;;;;;;;35.57;23.60;;;7.50;98.50;;;;;;5053186;28;20183;-74
2021/01/02 03:20:36;;;;;;;34.10;22.77;;;7.50;98.40;;;;;;5053950;28;20438;-73
2021/01/02 03:23:03;;;;;;;32.37;22.87;;;7.60;98.20;;;;;;5053148;28;20946;-74
2021/01/02 03:25:29;;;;;;;34.03;22.27;;;7.60;98.30;;;;;;5053543;28;20392;-73
2021/01/02 03:27:55;;;;;;;32.63;20.90;;;7.60;98.30;;;;;;5053310;28;20460;-73
2021/01/02 03:30:23;;;;;;;28.90;21.87;;;7.60;98.20;;;;;;5051873;28;20199;-73
2021/01/02 03:32:49;;;;;;;29.93;21.90;;;7.60;98.30;;;;;;5052443;28;20396;-73
2021/01/02 03:35:16;;;;;;;25.53;20.00;;;7.60;98.20;;;;;;5052874;28;20407;-73
2021/01/02 03:37:45;;;;;;;30.07;21.53;;;7.60;98.20;;;;;;5053863;28;20423;-73
2021/01/02 03:40:12;;;;;;;27.50;20.20;;;7.60;97.90;;;;;;5052801;28;20386;-73
2021/01/02 03:42:39;;;;;;;26.40;19.80;;;7.60;98.00;;;;;;5053452;28;20421;-73
2021/01/02 03:45:06;;;;;;;24.07;19.37;;;7.60;97.90;;;;;;5051545;28;20425;-74
2021/01/02 03:47:32;;;;;;;23.40;18.30;;;7.60;97.80;;;;;;5052114;28;20882;-74
2021/01/02 03:49:58;;;;;;;25.27;18.70;;;7.60;97.60;;;;;;5053342;28;20428;-73
2021/01/02 03:52:23;;;;;;;27.50;17.93;;;7.50;97.50;;;;;;5052609;28;20911;-73
2021/01/02 03:54:49;;;;;;;28.00;18.70;;;7.50;97.60;;;;;;5053053;28;20176;-73
2021/01/02 03:57:15;;;;;;;22.40;17.77;;;7.60;97.70;;;;;;5051999;28;20257;-74
2021/01/02 03:59:41;;;;;;;26.70;18.77;;;7.50;97.60;;;;;;5051942;28;20184;-73
2021/01/02 04:02:06;;;;;;;22.67;16.97;;;7.60;97.60;;;;;;5052220;28;20708;-74
2021/01/02 04:04:32;;;;;;;22.93;17.40;;;7.60;97.70;;;;;;5053162;28;20426;-73
2021/01/02 04:07:01;;;;;;;23.90;17.83;;;7.50;97.50;;;;;;5053067;28;20171;-73
2021/01/02 04:09:27;;;;;;;24.53;17.40;;;7.50;97.50;;;;;;5052298;28;20195;-74
2021/01/02 04:11:53;;;;;;;22.80;18.20;;;7.50;97.50;;;;;;5052950;28;20804;-74
2021/01/02 04:14:19;;;;;;;22.27;17.93;;;7.60;97.40;;;;;;5051623;28;20423;-74
2021/01/02 04:16:45;;;;;;;27.20;17.47;;;7.50;97.10;;;;;;5052900;28;20199;-73
2021/01/02 04:19:12;;;;;;;21.53;17.37;;;7.60;97.10;;;;;;5052335;28;20553;-73
2021/01/02 04:21:38;;;;;;;20.30;17.30;;;7.60;97.00;;;;;;5052931;28;20765;-73
2021/01/02 04:24:05;;;;;;;23.73;17.30;;;7.50;97.00;;;;;;5052226;28;20464;-74
2021/01/02 04:26:31;;;;;;;25.87;19.57;;;7.60;97.00;;;;;;5052759;28;20419;-73
2021/01/02 04:28:56;;;;;;;22.50;17.13;;;7.60;97.00;;;;;;5052580;28;20557;-73
2021/01/02 04:31:40;;;;;;;24.97;18.30;;;7.60;97.00;;;;;;5051928;28;20757;-74
2021/01/02 04:34:08;;;;;;;24.27;18.00;;;7.60;96.90;;;;;;5049776;28;20301;-74
2021/01/02 04:36:36;;;;;;;21.97;17.70;;;7.60;96.90;;;;;;5052548;28;20417;-74
2021/01/02 04:39:03;;;;;;;23.20;18.23;;;7.60;96.90;;;;;;5051421;28;20479;-73
2021/01/02 04:41:29;;;;;;;25.97;17.80;;;7.60;96.90;;;;;;5052153;28;20408;-74
2021/01/02 04:43:55;;;;;;;25.53;17.87;;;7.60;96.60;;;;;;5052068;28;20498;-74
2021/01/02 04:46:22;;;;;;;25.23;17.77;;;7.60;96.60;;;;;;5051565;28;20662;-74
2021/01/02 04:48:48;;;;;;;22.60;18.30;;;7.60;96.60;;;;;;5051045;28;20214;-73
2021/01/02 04:51:16;;;;;;;23.83;19.30;;;7.60;96.80;;;;;;5051444;28;20452;-74
2021/01/02 04:53:43;;;;;;;22.93;17.60;;;7.50;96.90;;;;;;5052147;28;20380;-73
2021/01/02 04:56:09;;;;;;;22.87;17.80;;;7.50;96.90;;;;;;5051455;28;20429;-74
2021/01/02 04:58:39;;;;;;;25.97;18.47;;;7.50;96.90;;;;;;5051319;28;20497;-73
2021/01/02 05:01:05;;;;;;;25.20;18.07;;;7.50;97.10;;;;;;5051884;28;20761;-74
2021/01/02 05:03:35;;;;;;;26.10;18.20;;;7.50;96.70;;;;;;5051917;28;20414;-73
2021/01/02 05:06:04;;;;;;;22.37;17.13;;;7.60;96.60;;;;;;5052112;28;20395;-73
2021/01/02 05:08:30;;;;;;;19.77;16.90;;;7.60;96.60;;;;;;5051518;28;20439;-73
2021/01/02 05:11:03;;;;;;;22.70;17.90;;;7.60;96.50;;;;;;5052173;28;20756;-73
2021/01/02 05:13:32;;;;;;;22.90;18.67;;;7.60;96.60;;;;;;5051504;28;20373;-74
2021/01/02 05:16:17;;;;;;;23.13;17.40;;;7.60;96.40;;;;;;5051819;28;20748;-73
2021/01/02 05:18:56;;;;;;;25.50;18.60;;;7.60;96.20;;;;;;5052178;28;20401;-74
2021/01/02 05:21:23;;;;;;;21.53;17.57;;;7.60;96.00;;;;;;5051199;28;20391;-73
2021/01/02 05:24:15;;;;;;;20.57;17.70;;;7.50;95.90;;;;;;5050688;28;20532;-73
2021/01/02 05:26:58;;;;;;;23.27;17.67;;;7.60;95.90;;;;;;5051656;28;20825;-73
2021/01/02 05:29:30;;;;;;;21.63;17.67;;;7.60;96.00;;;;;;5051062;28;20503;-74
2021/01/02 05:32:04;;;;;;;22.33;17.27;;;7.50;95.90;;;;;;5051469;28;20433;-73
2021/01/02 05:34:31;;;;;;;27.50;19.20;;;7.50;95.90;;;;;;5051449;28;20511;-74
2021/01/02 05:37:00;;;;;;;22.93;18.33;;;7.40;95.90;;;;;;5050691;28;20434;-74
2021/01/02 05:39:39;;;;;;;21.00;17.63;;;7.50;95.90;;;;;;5051065;28;20895;-74
2021/01/02 05:42:06;;;;;;;21.13;17.03;;;7.50;95.90;;;;;;5051723;28;20384;-74
2021/01/02 05:44:34;;;;;;;24.87;17.87;;;7.50;95.70;;;;;;5050837;28;20420;-74
2021/01/02 05:47:01;;;;;;;24.27;16.77;;;7.50;95.70;;;;;;5051622;28;20531;-74
2021/01/02 05:49:45;;;;;;;20.83;16.20;;;7.50;95.70;;;;;;5050923;28;20441;-74
2021/01/02 05:52:12;;;;;;;22.50;17.00;;;7.50;95.50;;;;;;5049532;28;20384;-74
2021/01/02 05:54:47;;;;;;;22.13;17.53;;;7.50;95.50;;;;;;5051837;28;20423;-73
2021/01/02 05:57:23;;;;;;;20.57;16.93;;;7.50;95.50;;;;;;5050999;28;20417;-74
2021/01/02 05:59:53;;;;;;;21.30;16.90;;;7.50;95.50;;;;;;5051538;28;20409;-73
2021/01/02 06:02:29;;;;;;;21.97;16.40;;;7.50;95.40;;;;;;5049925;28;20401;-72
2021/01/02 06:05:08;;;;;;;21.43;17.30;;;7.50;95.30;;;;;;5051677;28;20442;-72
2021/01/02 06:07:38;;;;;;;21.80;17.10;;;7.50;95.30;;;;;;5051005;28;20419;-72
2021/01/02 06:10:10;;;;;;;20.10;16.33;;;7.40;95.10;;;;;;5052628;28;20457;-72
2021/01/02 06:12:37;;;;;;;21.90;16.00;;;7.40;95.30;;;;;;5055154;28;20487;-72
2021/01/02 06:15:11;;;;;;;21.90;15.93;;;7.40;95.10;;;;;;5054784;28;20411;-72
2021/01/02 06:17:42;;;;;;;23.63;16.77;;;7.40;95.30;;;;;;5055289;28;20407;-72
2021/01/02 06:20:11;;;;;;;19.70;15.33;;;7.40;95.10;;;;;;5054842;28;20877;-72
2021/01/02 06:22:38;;;;;;;20.90;16.53;;;7.40;95.10;;;;;;5054830;28;20410;-72
2021/01/02 06:25:08;;;;;;;18.30;15.90;;;7.50;95.10;;;;;;5054691;28;20429;-72
2021/01/02 06:27:37;;;;;;;21.80;16.10;;;7.50;95.10;;;;;;5054051;28;20435;-72
2021/01/02 06:30:03;;;;;;;20.70;16.07;;;7.50;95.20;;;;;;5054584;28;20436;-72
2021/01/02 06:32:29;;;;;;;21.97;16.90;;;7.50;95.40;;;;;;5053780;28;20413;-72
2021/01/02 06:35:10;;;;;;;22.80;17.67;;;7.40;95.40;;;;;;5054650;28;20945;-72
2021/01/02 06:37:48;;;;;;;20.37;16.10;;;7.40;95.40;;;;;;5052975;28;20180;-72
2021/01/02 06:40:21;;;;;;;18.80;15.67;;;7.40;95.20;;;;;;5054003;28;20915;-73
2021/01/02 06:42:57;;;;;;;23.97;16.30;;;7.40;95.30;;;;;;5054665;28;20423;-72
2021/01/02 06:45:38;;;;;;;19.63;15.80;;;7.40;95.20;;;;;;5053946;28;20410;-72
2021/01/02 06:48:13;;;;;;;20.73;16.87;;;7.40;95.00;;;;;;5053968;28;20433;-72
2021/01/02 06:50:49;;;;;;;19.70;14.50;;;7.40;94.90;;;;;;5054412;28;20511;-72
2021/01/02 06:53:20;;;;;;;21.70;16.50;;;7.40;94.90;;;;;;5053719;28;20401;-73
2021/01/02 06:55:57;;;;;;;20.53;16.13;;;7.20;94.70;;;;;;5054595;28;20745;-72
2021/01/02 06:58:22;;;;;;;21.93;16.67;;;7.20;94.90;;;;;;5053393;28;20450;-72
2021/01/02 07:00:48;;;;;;;20.20;16.03;;;7.20;95.00;;;;;;5053508;28;20430;-72
2021/01/02 07:03:39;;;;;;;19.60;15.80;;;7.20;95.10;;;;;;5053602;28;20737;-73
2021/01/02 07:06:24;;;;;;;20.77;15.97;;;7.20;95.20;;;;;;5054208;28;20179;-72
2021/01/02 07:08:52;;;;;;;18.97;15.80;;;7.20;95.30;;;;;;5054103;28;20535;-72
2021/01/02 07:11:36;;;;;;;22.53;16.50;;;7.20;95.10;;;;;;5053375;28;20418;-73
2021/01/02 07:14:07;;;;;;;19.87;15.00;;;7.20;95.20;;;;;;5054185;28;20405;-72
2021/01/02 07:16:35;;;;;;;22.07;16.10;;;7.30;95.10;;;;;;5052035;28;21065;-72
2021/01/02 07:19:03;;;;;;;21.77;16.67;;;7.30;95.10;;;;;;5054054;28;20390;-72
2021/01/02 07:21:33;;;;;;;20.60;15.67;;;7.30;95.00;;;;;;5051467;28;20450;-72
2021/01/02 07:24:22;;;;;;;22.20;15.70;;;7.30;95.10;;;;;;5053484;28;20414;-72
2021/01/02 07:26:54;;;;;;;20.00;16.90;;;7.30;95.20;;;;;;5051775;28;20911;-72
2021/01/02 07:29:20;;;;;;;20.53;16.90;;;7.30;95.00;;;;;;5052962;28;20438;-72
2021/01/02 07:31:47;;;;;;;18.83;15.60;;;7.30;94.80;;;;;;5060076;28;20437;-72
2021/01/02 07:34:21;;;;;;;17.77;15.53;;;7.30;94.70;;;;;;5052416;28;20180;-73
2021/01/02 07:36:48;;;;;;;22.40;15.10;;;7.30;94.80;;;;;;5052636;28;20474;-72
2021/01/02 07:39:15;;;;;;;19.80;16.13;;;7.30;94.70;;;;;;5052639;28;20428;-73
2021/01/02 07:41:41;;;;;;;20.83;15.90;;;7.30;94.80;;;;;;5053361;28;20433;-72
2021/01/02 07:44:10;;;;;;;18.30;15.20;;;7.30;94.70;;;;;;5060364;28;20935;-72
2021/01/02 07:46:44;;;;;;;20.20;15.03;;;7.30;94.60;;;;;;5070991;28;20185;-72
2021/01/02 07:49:11;;;;;;;20.13;15.20;;;7.40;94.60;;;;;;5073272;28;20453;-72
2021/01/02 07:51:38;;;;;;;22.57;16.30;;;7.30;94.40;;;;;;5060773;28;20757;-73
2021/01/02 07:54:04;;;;;;;17.07;14.97;;;7.30;94.40;;;;;;5052574;28;20396;-73
2021/01/02 07:56:38;;;;;;;20.47;15.80;;;7.30;94.30;;;;;;5051923;28;20426;-73
2021/01/02 07:59:23;;;;;;;18.97;14.40;;;7.30;94.40;;;;;;5052829;28;20426;-72
2021/01/02 08:01:50;;;;;;;22.63;16.53;;;7.30;94.50;;;;;;5051965;28;20426;-72
2021/01/02 08:04:17;;;;;;;20.20;15.63;;;7.30;94.50;;;;;;5040303;28;20438;-71
2021/01/02 08:06:53;;;;;;;19.43;15.60;;;7.30;94.40;;;;;;5052763;28;20393;-71
2021/01/02 08:09:19;;;;;;;21.23;16.37;;;7.30;94.40;;;;;;5051637;28;20435;-71
2021/01/02 08:11:56;;;;;;;23.60;15.77;;;7.30;94.40;;;;;;5052827;28;20436;-71
2021/01/02 08:14:23;;;;;;;19.07;15.50;;;7.30;94.50;;;;;;5052256;28;20403;-71
2021/01/02 08:17:00;;;;;;;21.20;15.43;;;7.30;94.40;;;;;;5052764;28;20409;-71
2021/01/02 08:19:37;;;;;;;20.23;16.50;;;7.40;94.40;;;;;;5051844;28;20766;-71
2021/01/02 08:22:05;;;;;;;22.10;16.20;;;7.30;94.20;;;;;;5049185;28;20440;-72
2021/01/02 08:24:31;;;;;;;19.67;16.10;;;7.30;94.20;;;;;;5051177;28;20393;-71
2021/01/02 08:26:59;;;;;;;22.90;16.83;;;7.30;94.40;;;;;;5052475;28;20901;-71
2021/01/02 08:29:26;;;;;;;23.73;17.60;;;7.20;94.40;;;;;;5052833;28;20445;-72
2021/01/02 08:31:56;;;;;;;24.50;18.20;;;7.20;94.60;;;;;;5061145;28;20395;-72
2021/01/02 08:34:31;;;;;;;24.53;18.73;;;7.30;94.60;;;;;;5064736;28;20416;-72
2021/01/02 08:36:58;;;;;;;26.07;18.20;;;7.30;94.60;;;;;;5035656;28;20425;-71
2021/01/02 08:39:24;;;;;;;24.87;20.23;;;7.30;94.60;;;;;;5049949;28;20475;-71
2021/01/02 08:41:55;;;;;;;27.90;20.43;;;7.30;94.80;;;;;;5052454;28;20876;-71
2021/01/02 08:44:25;;;;;;;27.27;21.07;;;7.30;94.80;;;;;;5050653;28;20631;-72
2021/01/02 08:46:52;;;;;;;26.30;19.80;;;7.30;94.80;;;;;;5053521;28;20398;-71
2021/01/02 08:49:53;;;;;;;26.87;20.47;;;7.40;95.00;;;;;;5050907;28;21057;-72
2021/01/02 08:52:24;;;;;;;26.67;19.50;;;7.40;94.80;;;;;;5009774;28;20518;-71
2021/01/02 08:55:07;;;;;;;27.83;20.20;;;7.40;94.60;;;;;;5046195;28;20498;-76
2021/01/02 08:57:43;;;;;;;28.17;20.03;;;7.40;94.70;;;;;;5051693;28;20779;-73
2021/01/02 09:00:17;;;;;;;27.43;20.03;;;7.40;95.00;;;;;;5052234;28;20726;-73
2021/01/02 09:02:49;;;;;;;26.43;18.60;;;7.30;94.70;;;;;;5051501;28;20514;-73
2021/01/02 09:05:17;;;;;;;24.87;18.87;;;7.30;94.70;;;;;;5051801;28;20820;-72
2021/01/02 09:08:00;;;;;;;27.20;17.87;;;7.40;94.60;;;;;;5051566;28;20393;-73
2021/01/02 09:10:34;;;;;;;27.67;19.87;;;7.30;94.40;;;;;;5033112;28;20432;-75
2021/01/02 09:13:24;;;;;;;26.17;18.50;;;7.40;94.40;;;;;;5051736;28;20427;-73
2021/01/02 09:15:59;;;;;;;25.40;18.40;;;7.30;94.40;;;;;;5052375;28;20418;-73
2021/01/02 09:18:28;;;;;;;27.93;19.50;;;7.30;94.60;;;;;;5051273;28;20766;-73
2021/01/02 09:20:58;;;;;;;24.90;17.93;;;7.40;94.60;;;;;;5051674;28;20750;-73
2021/01/02 09:23:30;;;;;;;27.37;18.30;;;7.40;94.50;;;;;;5050832;28;20429;-73
2021/01/02 09:25:56;;;;;;;25.10;17.73;;;7.40;94.50;;;;;;5051735;28;20414;-73
2021/01/02 09:28:21;;;;;;;24.10;18.03;;;7.40;94.40;;;;;;5050707;28;20482;-74
2021/01/02 09:30:49;;;;;;;27.93;18.67;;;7.50;94.40;;;;;;5051995;28;20167;-75
2021/01/02 09:33:15;;;;;;;25.20;19.43;;;7.50;94.40;;;;;;5050628;28;20255;-75
2021/01/02 09:35:43;;;;;;;24.40;17.97;;;7.50;94.50;;;;;;5051361;28;20377;-75
2021/01/02 09:38:09;;;;;;;26.13;18.10;;;7.50;94.60;;;;;;5050213;28;20468;-73
2021/01/02 09:40:38;;;;;;;23.37;18.93;;;7.60;94.40;;;;;;5050932;28;20392;-73
2021/01/02 09:43:07;;;;;;;24.67;18.10;;;7.60;94.40;;;;;;5050664;28;20492;-74
2021/01/02 09:45:33;;;;;;;24.20;18.07;;;7.70;94.30;;;;;;5052683;28;20433;-74
2021/01/02 09:47:58;;;;;;;28.07;18.83;;;7.70;94.40;;;;;;5054016;28;20503;-74
2021/01/02 09:50:24;;;;;;;26.63;19.93;;;7.80;94.30;;;;;;5077453;28;20650;-74
2021/01/02 09:52:50;;;;;;;25.00;18.43;;;7.80;94.10;;;;;;5055379;28;20184;-74
2021/01/02 09:55:17;;;;;;;25.17;18.00;;;7.80;94.30;;;;;;5086327;28;20409;-74
2021/01/02 09:57:46;;;;;;;28.20;18.53;;;7.90;94.20;;;;;;5086947;28;20417;-74
2021/01/02 10:00:12;;;;;;;28.57;19.10;;;7.90;94.10;;;;;;5055365;28;20390;-75
2021/01/02 10:02:38;;;;;;;25.10;19.20;;;8.10;96.30;;;;;;5054452;28;20398;-75
2021/01/02 10:05:05;;;;;;;25.00;19.00;;;8.80;99.90;;;;;;5087729;28;20427;-76
2021/01/02 10:07:30;;;;;;;20.90;15.40;;;9.60;99.90;;;;;;5053840;28;20270;-76
2021/01/02 10:09:56;;;;;;;23.00;18.33;;;10.50;99.90;;;;;;5055028;28;20548;-75
2021/01/02 10:12:22;;;;;;;23.10;19.17;;;11.30;99.90;;;;;;5054839;28;20250;-76
2021/01/02 10:14:48;;;;;;;24.53;18.80;;;11.70;98.00;;;;;;5053717;28;20169;-78
2021/01/02 10:17:14;;;;;;;22.57;18.30;;;11.90;94.20;;;;;;5053622;28;20178;-77
2021/01/02 10:19:42;;;;;;;22.63;18.30;;;12.10;90.80;;;;;;5054004;28;20177;-77
2021/01/02 10:22:08;;;;;;;22.27;19.87;;;12.30;87.00;;;;;;5054956;28;20426;-77
2021/01/02 10:24:34;;;;;;;23.47;18.83;;;12.40;84.20;;;;;;5055558;28;20429;-78
2021/01/02 10:27:00;;;;;;;24.10;19.67;;;12.60;83.60;;;;;;5065041;28;20469;-77
2021/01/02 10:29:26;;;;;;;24.30;18.87;;;12.70;85.00;;;;;;5060082;28;20497;-78
2021/01/02 10:31:52;;;;;;;22.60;18.00;;;12.90;82.30;;;;;;5062445;28;20447;-77
2021/01/02 10:34:17;;;;;;;21.47;17.23;;;13.00;80.20;;;;;;5062375;28;20182;-77
2021/01/02 10:36:47;;;;;;;21.30;18.17;;;13.20;80.00;;;;;;5064447;28;20245;-78
2021/01/02 10:39:13;;;;;;;22.37;17.90;;;13.30;78.80;;;;;;5064112;28;20175;-77
2021/01/02 10:41:39;;;;;;;23.87;17.87;;;13.40;78.20;;;;;;5064858;28;20421;-77
2021/01/02 10:44:05;;;;;;;19.30;17.27;;;13.50;77.30;;;;;;5063963;28;20753;-77
2021/01/02 10:46:31;;;;;;;23.53;18.30;;;13.60;75.60;;;;;;5064564;28;20482;-78
2021/01/02 10:48:57;;;;;;;22.30;18.37;;;13.60;74.80;;;;;;5064770;28;20463;-77
2021/01/02 10:51:23;;;;;;;24.03;17.70;;;13.70;76.30;;;;;;5061082;28;20173;-78
2021/01/02 10:53:48;;;;;;;21.53;17.90;;;13.90;83.20;;;;;;5060207;28;20204;-78
2021/01/02 10:56:17;;;;;;;23.10;17.30;;;14.00;77.80;;;;;;5054336;28;20641;-78
2021/01/02 10:58:43;;;;;;;64.70;47.37;;;14.10;76.10;;;;;;5057286;28;20254;-78
2021/01/02 11:01:09;;;;;;;161.53;119.13;;;14.30;77.10;;;;;;5054348;28;20416;-77
2021/01/02 11:03:36;;;;;;;104.30;69.93;;;14.40;76.00;;;;;;5053560;28;20413;-77
2021/01/02 11:06:10;;;;;;;22.17;19.53;;;14.50;74.40;;;;;;5053863;28;20410;-77
2021/01/02 11:08:38;;;;;;;21.73;18.60;;;14.50;72.80;;;;;;5052474;28;20880;-78
2021/01/02 11:11:05;;;;;;;21.57;18.00;;;14.60;71.10;;;;;;5054213;28;20463;-77
2021/01/02 11:13:31;;;;;;;21.90;17.23;;;14.50;70.00;;;;;;5051875;28;20452;-78
2021/01/02 11:15:56;;;;;;;23.73;18.60;;;14.40;69.70;;;;;;5053531;28;20428;-77
2021/01/02 11:18:22;;;;;;;25.80;19.57;;;14.30;69.80;;;;;;5052788;28;20421;-73
2021/01/02 11:20:48;;;;;;;21.43;18.53;;;14.20;71.70;;;;;;5053149;28;20637;-77
2021/01/02 11:23:20;;;;;;;19.47;17.30;;;14.20;70.40;;;;;;5053957;28;20265;-76
2021/01/02 11:25:46;;;;;;;24.13;18.83;;;14.30;71.60;;;;;;5052463;28;20312;-76
2021/01/02 11:28:13;;;;;;;22.20;19.10;;;14.40;71.00;;;;;;5051683;28;20964;-76
2021/01/02 11:30:39;;;;;;;19.63;17.33;;;14.60;71.50;;;;;;5055960;28;20443;-76
2021/01/02 11:33:05;;;;;;;21.63;17.33;;;14.60;70.50;;;;;;5053434;28;20792;-76
2021/01/02 11:35:31;;;;;;;21.27;18.13;;;14.70;69.00;;;;;;5051937;28;20426;-77
2021/01/02 11:37:58;;;;;;;20.53;18.07;;;14.70;69.50;;;;;;5051875;28;20407;-77
2021/01/02 11:40:24;;;;;;;20.60;18.43;;;14.70;69.00;;;;;;5048986;28;20432;-76
2021/01/02 11:42:50;;;;;;;20.00;17.10;;;14.70;69.00;;;;;;5057679;28;20428;-77
2021/01/02 11:45:19;;;;;;;20.33;18.07;;;14.60;68.70;;;;;;5062424;28;20426;-77
2021/01/02 11:47:45;;;;;;;19.30;16.80;;;14.60;68.50;;;;;;5057634;28;20534;-75
2021/01/02 11:50:12;;;;;;;23.63;17.43;;;14.60;68.70;;;;;;5061867;28;20506;-75
2021/01/02 11:52:38;;;;;;;21.93;16.90;;;14.60;68.60;;;;;;5057675;28;20830;-77
2021/01/02 11:55:05;;;;;;;21.60;17.37;;;14.60;69.10;;;;;;5053496;28;20423;-76
2021/01/02 11:57:31;;;;;;;311.57;197.87;;;14.60;69.00;;;;;;5052613;28;20225;-77
2021/01/02 11:59:57;;;;;;;113.07;81.40;;;14.70;69.30;;;;;;5051609;28;20811;-74
2021/01/02 12:02:22;;;;;;;21.50;19.30;;;14.60;66.80;;;;;;5060799;28;20168;-74
2021/01/02 12:04:48;;;;;;;21.17;18.87;;;14.30;65.60;;;;;;5061546;28;20248;-74
2021/01/02 12:07:14;;;;;;;21.80;18.10;;;13.80;66.60;;;;;;5059916;28;20258;-76
2021/01/02 12:09:40;;;;;;;20.63;16.10;;;13.30;67.70;;;;;;5051077;28;20206;-75
2021/01/02 12:12:06;;;;;;;21.67;16.00;;;12.70;68.70;;;;;;5052668;28;20283;-73
2021/01/02 12:14:36;;;;;;;19.57;15.33;;;12.30;70.80;;;;;;5051606;28;20432;-73
2021/01/02 12:17:10;;;;;;;18.20;15.67;;;11.90;72.70;;;;;;5052810;28;20416;-72
2021/01/02 12:19:36;;;;;;;19.00;15.97;;;11.60;73.80;;;;;;5050770;28;20412;-73
2021/01/02 12:22:05;;;;;;;19.27;15.87;;;11.30;75.10;;;;;;5052542;28;20439;-72
2021/01/02 12:24:32;;;;;;;21.23;15.90;;;11.00;76.20;;;;;;5050658;28;20427;-73
2021/01/02 12:27:05;;;;;;;19.93;16.07;;;10.80;78.00;;;;;;5052813;28;20421;-73
2021/01/02 12:29:32;;;;;;;17.90;15.00;;;10.60;79.70;;;;;;5052170;28;20472;-75
2021/01/02 12:32:03;;;;;;;19.77;15.40;;;10.40;80.40;;;;;;5051312;28;20429;-73
2021/01/02 12:34:32;;;;;;;18.40;15.40;;;10.30;81.00;;;;;;5052448;28;20409;-74
2021/01/02 12:36:59;;;;;;;20.53;15.73;;;10.10;81.50;;;;;;5052542;28;20424;-73
2021/01/02 12:39:30;;;;;;;22.43;16.20;;;10.10;82.60;;;;;;5052576;28;20420;-74
2021/01/02 12:41:59;;;;;;;19.83;15.30;;;9.90;84.30;;;;;;5052294;28;20392;-75
2021/01/02 12:44:26;;;;;;;19.17;15.57;;;9.90;85.10;;;;;;5052450;28;20507;-75
2021/01/02 12:46:54;;;;;;;20.77;17.10;;;9.80;85.70;;;;;;5051614;28;20418;-75
2021/01/02 12:49:25;;;;;;;24.60;17.73;;;9.70;86.20;;;;;;5051101;28;20468;-75
2021/01/02 12:51:56;;;;;;;20.77;16.70;;;9.70;86.70;;;;;;5051628;28;20439;-75
2021/01/02 12:54:22;;;;;;;20.90;16.07;;;9.60;86.70;;;;;;5052109;28;20428;-75